Time;durP1;ratioP1;P1;durP2;ratioP2;P2;SDS_P1;SDS_P2;PMS_P1;PMS_P2;Temp;Humidity;BMP_temperature;BMP_pressure;BME280_temperature;BME280_humidity;BME280_pressure;Samples;Min_cycle;Max_cycle;Signal;HPM_P1;HPM_P2
2023/09/21 00:00:11;;;;;;;6.82;2.20;;;18.20;98.50;;;;;;5047422;28;20045;-66
2023/09/21 00:02:37;;;;;;;3.63;1.67;;;18.20;98.40;;;;;;5032056;28;20540;-69
2023/09/21 00:05:03;;;;;;;6.25;1.92;;;18.30;98.30;;;;;;5032085;28;20037;-70
2023/09/21 00:07:29;;;;;;;3.30;1.67;;;18.20;98.10;;;;;;5049901;28;20511;-69
2023/09/21 00:09:54;;;;;;;4.45;2.10;;;18.20;98.50;;;;;;5048332;28;20080;-68
2023/09/21 00:12:20;;;;;;;4.63;1.70;;;18.20;98.40;;;;;;5049479;28;20044;-69
2023/09/21 00:14:46;;;;;;;3.20;1.60;;;18.10;98.90;;;;;;5047740;28;20080;-68
2023/09/21 00:17:12;;;;;;;4.93;1.98;;;18.00;99.00;;;;;;5048075;28;20045;-70
2023/09/21 00:19:38;;;;;;;2.90;2.00;;;18.00;99.20;;;;;;5048964;28;20374;-68
2023/09/21 00:22:04;;;;;;;2.78;1.80;;;18.00;99.30;;;;;;5048652;28;20037;-69
2023/09/21 00:24:30;;;;;;;2.95;1.88;;;18.00;99.30;;;;;;5048695;28;20044;-68
2023/09/21 00:26:59;;;;;;;5.55;2.30;;;17.90;99.60;;;;;;5048966;28;20036;-68
2023/09/21 00:29:24;;;;;;;3.78;1.85;;;17.90;99.90;;;;;;5047756;28;20045;-69
2023/09/21 00:31:50;;;;;;;5.35;1.88;;;17.90;99.80;;;;;;5047620;28;20057;-67
2023/09/21 00:34:16;;;;;;;4.53;1.80;;;17.90;99.90;;;;;;5048318;28;20186;-69
2023/09/21 00:36:45;;;;;;;5.97;1.95;;;17.80;99.90;;;;;;5036234;28;20046;-69
2023/09/21 00:39:11;;;;;;;5.00;1.90;;;17.80;99.90;;;;;;5028182;28;20494;-69
2023/09/21 00:41:37;;;;;;;5.57;2.10;;;17.80;99.90;;;;;;5028438;28;20068;-68
2023/09/21 00:44:07;;;;;;;3.55;1.65;;;17.80;99.90;;;;;;5028393;28;20382;-69
2023/09/21 00:46:35;;;;;;;5.70;2.08;;;17.80;99.90;;;;;;5022725;28;20041;-69
2023/09/21 00:49:03;;;;;;;3.60;1.83;;;17.70;99.90;;;;;;5047373;28;20500;-68
2023/09/21 00:51:30;;;;;;;4.95;2.08;;;17.70;99.90;;;;;;5022718;28;20044;-69
2023/09/21 00:53:56;;;;;;;5.10;2.08;;;17.60;99.90;;;;;;5050051;28;20041;-68
2023/09/21 00:56:22;;;;;;;3.72;1.67;;;17.60;99.90;;;;;;5037324;28;20080;-68
2023/09/21 00:58:53;;;;;;;5.93;2.05;;;17.60;99.90;;;;;;5029268;28;20042;-69
2023/09/21 01:01:22;;;;;;;3.53;2.05;;;17.50;99.90;;;;;;5028054;28;20041;-68
2023/09/21 01:03:50;;;;;;;6.05;2.08;;;17.50;99.90;;;;;;5028890;28;20155;-68
2023/09/21 01:06:16;;;;;;;4.78;2.15;;;17.50;99.90;;;;;;5008655;28;20123;-69
2023/09/21 01:08:42;;;;;;;4.28;2.05;;;17.50;99.90;;;;;;5028828;28;20354;-68
2023/09/21 01:11:14;;;;;;;6.50;1.98;;;17.50;99.90;;;;;;5018057;28;20068;-68
2023/09/21 01:13:41;;;;;;;3.35;1.88;;;17.40;99.90;;;;;;5048759;28;20041;-67
2023/09/21 01:16:11;;;;;;;5.53;2.33;;;17.40;99.90;;;;;;5031093;28;20161;-68
2023/09/21 01:18:40;;;;;;;5.87;2.17;;;17.40;99.90;;;;;;5048414;28;20041;-68
2023/09/21 01:21:10;;;;;;;2.97;2.15;;;17.40;99.90;;;;;;5044824;28;20075;-70
2023/09/21 01:23:46;;;;;;;3.28;1.85;;;17.30;99.90;;;;;;5048353;28;20047;-69
2023/09/21 01:26:14;;;;;;;7.13;2.40;;;17.40;99.90;;;;;;5050799;28;20041;-69
2023/09/21 01:28:40;;;;;;;3.08;2.25;;;17.40;99.90;;;;;;5035170;28;20041;-68
2023/09/21 01:31:05;;;;;;;3.38;1.80;;;17.40;99.90;;;;;;5051149;28;20041;-67
2023/09/21 01:33:33;;;;;;;4.30;1.98;;;17.40;99.90;;;;;;5052482;28;20092;-67
2023/09/21 01:35:58;;;;;;;3.13;1.83;;;17.40;99.90;;;;;;5049800;28;20442;-67
2023/09/21 01:38:27;;;;;;;3.58;1.75;;;17.50;99.90;;;;;;5034865;28;20109;-67
2023/09/21 01:40:53;;;;;;;4.60;1.90;;;17.50;99.90;;;;;;5051942;28;20068;-67
2023/09/21 01:43:19;;;;;;;2.70;1.75;;;17.60;99.90;;;;;;5052113;28;20075;-67
2023/09/21 01:45:48;;;;;;;3.30;1.90;;;17.60;99.90;;;;;;5035341;28;20076;-68
2023/09/21 01:48:15;;;;;;;3.47;2.20;;;17.60;99.90;;;;;;5031949;28;20123;-68
2023/09/21 01:50:45;;;;;;;3.70;2.10;;;17.60;99.90;;;;;;5029494;28;20041;-69
2023/09/21 01:53:11;;;;;;;3.97;1.70;;;17.50;99.90;;;;;;5014181;28;20073;-69
2023/09/21 01:55:37;;;;;;;3.63;2.00;;;17.50;99.90;;;;;;5032055;28;20127;-68
2023/09/21 01:58:04;;;;;;;4.13;1.90;;;17.60;99.90;;;;;;5031867;28;20041;-68
2023/09/21 02:00:34;;;;;;;3.28;1.80;;;17.60;99.90;;;;;;5031556;28;20492;-68
2023/09/21 02:03:01;;;;;;;3.97;1.80;;;17.70;99.90;;;;;;5031147;28;20064;-68
2023/09/21 02:05:28;;;;;;;5.80;1.70;;;17.70;99.90;;;;;;5029438;28;20128;-67
2023/09/21 02:07:55;;;;;;;5.22;1.80;;;17.70;99.90;;;;;;5030526;28;20358;-69
2023/09/21 02:10:21;;;;;;;6.68;2.08;;;17.70;99.90;;;;;;5031112;28;20128;-69
2023/09/21 02:12:54;;;;;;;6.57;1.95;;;17.70;99.90;;;;;;5031859;28;20230;-68
2023/09/21 02:15:19;;;;;;;3.65;1.80;;;17.70;99.90;;;;;;5014324;28;20104;-68
2023/09/21 02:17:45;;;;;;;4.32;2.10;;;17.60;99.90;;;;;;5031209;28;20053;-69
2023/09/21 02:20:14;;;;;;;4.50;1.80;;;17.60;99.90;;;;;;5028452;28;20049;-68
2023/09/21 02:22:48;;;;;;;2.53;2.08;;;17.60;99.90;;;;;;5014046;28;20048;-68
2023/09/21 02:25:15;;;;;;;5.03;2.10;;;17.50;99.90;;;;;;5031816;28;20048;-68
2023/09/21 02:27:41;;;;;;;6.18;1.98;;;17.50;99.90;;;;;;5031553;28;20041;-67
2023/09/21 02:30:16;;;;;;;3.35;2.03;;;17.40;99.90;;;;;;5030642;28;20148;-69
2023/09/21 02:32:49;;;;;;;3.13;1.70;;;17.40;99.90;;;;;;5031129;28;20115;-68
2023/09/21 02:35:24;;;;;;;3.78;1.80;;;17.40;99.90;;;;;;5028723;28;20054;-68
2023/09/21 02:37:51;;;;;;;4.32;1.92;;;17.30;99.90;;;;;;5030212;28;20049;-68
2023/09/21 02:40:19;;;;;;;3.95;2.10;;;17.40;99.90;;;;;;5031118;28;20037;-68
2023/09/21 02:42:50;;;;;;;5.55;2.10;;;17.30;99.90;;;;;;5014821;28;20405;-68
2023/09/21 02:45:18;;;;;;;2.78;2.05;;;17.20;99.90;;;;;;5045322;28;20041;-67
2023/09/21 02:47:44;;;;;;;4.22;1.98;;;17.20;99.90;;;;;;5033914;28;20041;-68
2023/09/21 02:50:14;;;;;;;4.38;2.10;;;17.10;99.90;;;;;;5048208;28;20103;-67
2023/09/21 02:52:45;;;;;;;4.90;2.20;;;17.10;99.90;;;;;;5049477;28;20048;-67
2023/09/21 02:55:11;;;;;;;4.32;2.17;;;17.10;99.90;;;;;;5034704;28;20051;-68
2023/09/21 02:57:37;;;;;;;4.47;2.08;;;17.10;99.90;;;;;;5050698;28;20041;-68
2023/09/21 03:00:11;;;;;;;2.85;1.80;;;17.00;99.90;;;;;;5033398;28;20128;-68
2023/09/21 03:02:37;;;;;;;3.67;1.88;;;17.00;99.90;;;;;;5050313;28;20053;-68
2023/09/21 03:05:03;;;;;;;4.15;1.80;;;17.00;99.90;;;;;;5048525;28;20045;-67
2023/09/21 03:07:29;;;;;;;3.15;1.48;;;17.00;99.90;;;;;;5049740;28;20120;-67
2023/09/21 03:09:55;;;;;;;2.75;1.77;;;17.00;99.90;;;;;;5049717;28;20144;-67
2023/09/21 03:12:22;;;;;;;3.83;1.90;;;17.00;99.90;;;;;;5050681;28;20044;-68
2023/09/21 03:14:48;;;;;;;3.40;1.73;;;17.00;99.90;;;;;;5049631;28;20043;-67
2023/09/21 03:17:14;;;;;;;5.32;1.58;;;17.00;99.90;;;;;;5050379;28;20473;-67
2023/09/21 03:19:40;;;;;;;3.47;1.65;;;17.00;99.90;;;;;;5047602;28;20118;-67
2023/09/21 03:22:06;;;;;;;3.35;1.58;;;17.00;99.90;;;;;;5049625;28;20037;-67
2023/09/21 03:24:31;;;;;;;2.85;1.73;;;17.10;99.90;;;;;;5050408;28;20090;-68
2023/09/21 03:26:57;;;;;;;2.90;1.48;;;17.20;99.90;;;;;;5033376;28;20176;-69
2023/09/21 03:29:22;;;;;;;2.85;1.73;;;17.20;99.90;;;;;;5049439;28;20036;-68
2023/09/21 03:31:48;;;;;;;3.15;1.83;;;17.40;99.90;;;;;;5033132;28;20186;-68
2023/09/21 03:34:14;;;;;;;2.42;1.67;;;17.30;99.90;;;;;;5050307;28;20052;-68
2023/09/21 03:36:41;;;;;;;2.40;1.40;;;17.30;99.90;;;;;;5030234;28;20120;-68
2023/09/21 03:39:09;;;;;;;2.45;1.83;;;17.50;99.90;;;;;;5050229;28;20044;-70
2023/09/21 03:41:35;;;;;;;4.85;1.85;;;17.50;99.90;;;;;;5049302;28;20067;-69
2023/09/21 03:44:02;;;;;;;4.00;1.77;;;17.50;99.90;;;;;;5044890;28;20042;-68
2023/09/21 03:46:29;;;;;;;5.95;1.65;;;17.50;99.90;;;;;;5029023;28;20037;-68
2023/09/21 03:48:54;;;;;;;3.45;1.67;;;17.50;99.90;;;;;;5029584;28;20504;-68
2023/09/21 03:51:20;;;;;;;2.60;1.70;;;17.40;99.90;;;;;;5026139;28;20160;-68
2023/09/21 03:53:46;;;;;;;3.80;1.90;;;17.30;99.90;;;;;;5029878;28;20072;-69
2023/09/21 03:56:11;;;;;;;4.50;1.58;;;17.40;99.90;;;;;;5030282;28;20114;-69
2023/09/21 03:58:37;;;;;;;2.20;1.60;;;17.40;99.90;;;;;;5013447;28;20046;-69
2023/09/21 04:01:04;;;;;;;2.58;1.40;;;17.30;99.90;;;;;;5028562;28;20044;-69
2023/09/21 04:03:30;;;;;;;5.30;1.80;;;17.20;99.90;;;;;;5029647;28;20056;-68
2023/09/21 04:06:02;;;;;;;6.22;1.75;;;17.20;99.90;;;;;;5027196;28;20452;-70
2023/09/21 04:08:27;;;;;;;2.88;1.50;;;17.10;99.90;;;;;;5012890;28;20037;-68
2023/09/21 04:10:59;;;;;;;2.85;1.80;;;17.10;99.90;;;;;;5029352;28;20045;-68
2023/09/21 04:13:25;;;;;;;4.75;1.80;;;17.10;99.90;;;;;;5029575;28;20427;-69
2023/09/21 04:15:50;;;;;;;3.08;1.73;;;17.10;99.90;;;;;;5028401;28;20123;-68
2023/09/21 04:18:16;;;;;;;5.20;1.58;;;17.10;99.90;;;;;;5012891;28;20474;-68
2023/09/21 04:20:44;;;;;;;3.17;1.60;;;17.00;99.90;;;;;;5010125;28;20120;-69
2023/09/21 04:23:10;;;;;;;2.85;1.70;;;17.00;99.90;;;;;;5028310;28;20072;-68
2023/09/21 04:25:38;;;;;;;3.42;1.80;;;17.00;99.90;;;;;;5029395;28;20496;-69
2023/09/21 04:28:05;;;;;;;3.22;2.20;;;17.00;99.90;;;;;;5028774;28;20132;-69
2023/09/21 04:30:34;;;;;;;2.53;1.75;;;17.00;99.90;;;;;;5028692;28;20635;-68
2023/09/21 04:33:00;;;;;;;3.03;2.00;;;17.00;99.90;;;;;;5028996;28;20038;-68
2023/09/21 04:35:26;;;;;;;5.32;2.00;;;16.90;99.90;;;;;;5027086;28;20461;-68
2023/09/21 04:37:53;;;;;;;2.70;1.52;;;17.00;99.90;;;;;;5028116;28;20050;-68
2023/09/21 04:40:19;;;;;;;4.07;1.70;;;16.90;99.90;;;;;;5028692;28;20084;-68
2023/09/21 04:42:46;;;;;;;4.10;1.90;;;16.90;99.90;;;;;;5045827;28;20073;-68
2023/09/21 04:45:15;;;;;;;4.32;1.90;;;16.90;99.90;;;;;;5031380;28;20461;-69
2023/09/21 04:47:43;;;;;;;3.67;1.60;;;16.90;99.90;;;;;;5048808;28;20041;-70
2023/09/21 04:50:16;;;;;;;4.10;1.90;;;16.80;99.90;;;;;;5045783;28;20040;-67
2023/09/21 04:52:43;;;;;;;2.30;1.65;;;16.90;99.90;;;;;;5047792;28;20122;-68
2023/09/21 04:55:10;;;;;;;2.25;1.50;;;16.90;99.90;;;;;;5048820;28;20049;-67
2023/09/21 04:57:36;;;;;;;2.17;1.77;;;17.00;99.90;;;;;;5048882;28;20123;-67
2023/09/21 05:00:07;;;;;;;4.85;1.67;;;17.00;99.90;;;;;;5048325;28;20140;-67
2023/09/21 05:02:32;;;;;;;4.38;1.95;;;16.90;99.90;;;;;;5052046;28;20091;-68
2023/09/21 05:04:59;;;;;;;5.93;1.77;;;17.00;99.90;;;;;;5050715;28;20489;-67
2023/09/21 05:07:25;;;;;;;5.25;1.80;;;17.10;99.90;;;;;;5051420;28;20056;-66
2023/09/21 05:09:51;;;;;;;2.38;1.48;;;17.10;99.90;;;;;;5052289;28;20120;-68
2023/09/21 05:12:18;;;;;;;2.58;1.70;;;17.10;99.90;;;;;;5052752;28;20055;-68
2023/09/21 05:14:45;;;;;;;2.97;1.52;;;17.20;99.90;;;;;;5052151;28;20048;-68
2023/09/21 05:17:11;;;;;;;3.88;1.60;;;17.40;99.90;;;;;;5036137;28;20037;-68
2023/09/21 05:19:37;;;;;;;4.18;1.33;;;17.40;99.90;;;;;;5032430;28;20617;-67
2023/09/21 05:22:04;;;;;;;3.08;1.70;;;17.40;99.90;;;;;;5015260;28;20124;-67
2023/09/21 05:24:30;;;;;;;2.28;1.70;;;17.50;99.90;;;;;;5032980;28;20041;-68
2023/09/21 05:26:56;;;;;;;4.28;2.20;;;17.60;99.90;;;;;;5032796;28;20037;-67
2023/09/21 05:29:22;;;;;;;2.50;1.55;;;17.60;99.90;;;;;;5032089;28;20408;-69
2023/09/21 05:31:49;;;;;;;2.30;1.40;;;17.80;98.60;;;;;;5015693;28;20045;-69
2023/09/21 05:34:15;;;;;;;2.85;1.58;;;17.90;98.20;;;;;;5032489;28;20041;-70
2023/09/21 05:36:44;;;;;;;2.75;1.58;;;17.90;98.90;;;;;;5047731;28;20055;-68
2023/09/21 05:39:09;;;;;;;3.63;1.50;;;18.00;98.70;;;;;;5052345;28;20064;-68
2023/09/21 05:41:35;;;;;;;4.05;1.45;;;18.10;98.10;;;;;;5052097;28;20330;-69
2023/09/21 05:44:01;;;;;;;3.97;1.45;;;18.10;98.40;;;;;;5052054;28;20033;-69
2023/09/21 05:46:26;;;;;;;4.35;1.50;;;18.20;97.40;;;;;;5051190;28;20047;-69
2023/09/21 05:48:52;;;;;;;5.18;1.60;;;18.30;97.60;;;;;;5052186;28;20045;-69
2023/09/21 05:51:18;;;;;;;2.35;1.67;;;18.40;96.70;;;;;;5048357;28;20766;-69
2023/09/21 05:53:43;;;;;;;6.68;1.75;;;18.40;96.60;;;;;;5051651;28;20044;-70
2023/09/21 05:56:09;;;;;;;4.00;1.70;;;18.50;96.30;;;;;;5052284;28;20476;-68
2023/09/21 05:58:36;;;;;;;3.88;1.98;;;18.60;96.40;;;;;;5051877;28;20052;-69
2023/09/21 06:01:02;;;;;;;4.90;1.63;;;18.60;96.30;;;;;;5050594;28;20052;-69
2023/09/21 06:03:28;;;;;;;2.92;1.80;;;18.70;95.80;;;;;;5051739;28;20056;-68
2023/09/21 06:05:54;;;;;;;3.00;1.55;;;18.70;95.10;;;;;;5049272;28;20045;-69
2023/09/21 06:08:20;;;;;;;2.85;1.73;;;18.70;96.20;;;;;;5031604;28;20042;-69
2023/09/21 06:10:46;;;;;;;3.75;1.50;;;18.70;95.70;;;;;;5030945;28;20354;-69
2023/09/21 06:13:12;;;;;;;2.78;1.40;;;18.80;95.70;;;;;;5031466;28;20041;-70
2023/09/21 06:15:45;;;;;;;4.68;2.08;;;18.80;94.20;;;;;;5030723;28;20045;-69
2023/09/21 06:18:10;;;;;;;2.78;1.60;;;18.90;94.60;;;;;;5032805;28;20038;-69
2023/09/21 06:20:36;;;;;;;2.63;1.60;;;18.90;95.50;;;;;;5029113;28;20040;-69
2023/09/21 06:23:02;;;;;;;4.63;1.83;;;18.90;95.60;;;;;;5030603;28;20044;-69
2023/09/21 06:25:28;;;;;;;4.03;1.77;;;18.90;96.30;;;;;;5031171;28;20120;-70
2023/09/21 06:27:53;;;;;;;4.15;1.60;;;19.00;96.40;;;;;;5031387;28;20051;-70
2023/09/21 06:30:22;;;;;;;2.72;1.50;;;19.10;96.70;;;;;;5030423;28;20385;-72
2023/09/21 06:32:47;;;;;;;3.80;1.60;;;19.20;96.60;;;;;;5030954;28;20041;-69
2023/09/21 06:35:14;;;;;;;2.40;1.40;;;19.40;94.30;;;;;;5012655;28;20075;-71
2023/09/21 06:37:40;;;;;;;4.63;1.60;;;19.60;96.40;;;;;;5029817;28;20232;-71
2023/09/21 06:40:06;;;;;;;2.97;2.13;;;19.60;94.00;;;;;;5030784;28;20493;-70
2023/09/21 06:42:32;;;;;;;3.63;1.80;;;19.60;94.30;;;;;;5014137;28;20060;-71
2023/09/21 06:44:57;;;;;;;2.80;1.63;;;19.60;94.90;;;;;;5042515;28;20063;-69
2023/09/21 06:47:26;;;;;;;2.63;1.77;;;19.50;94.90;;;;;;5050567;28;20086;-72
2023/09/21 06:49:53;;;;;;;3.28;1.83;;;19.50;94.90;;;;;;5038397;28;20408;-70
2023/09/21 06:52:21;;;;;;;4.15;2.03;;;19.40;94.90;;;;;;5030294;28;20478;-69
2023/09/21 06:54:48;;;;;;;2.55;1.85;;;19.40;95.00;;;;;;5050560;28;20072;-69
2023/09/21 06:57:15;;;;;;;3.08;1.48;;;19.30;95.30;;;;;;5034726;28;20195;-69
2023/09/21 06:59:42;;;;;;;3.50;1.60;;;19.30;95.20;;;;;;5034437;28;20048;-69
2023/09/21 07:02:10;;;;;;;3.47;1.73;;;19.20;95.90;;;;;;5024874;28;20088;-71
2023/09/21 07:04:36;;;;;;;2.80;1.40;;;19.20;95.80;;;;;;5028433;28;20076;-70
2023/09/21 07:07:04;;;;;;;5.32;1.60;;;19.20;95.90;;;;;;5041151;28;20060;-69
2023/09/21 07:09:31;;;;;;;4.60;1.58;;;19.20;96.20;;;;;;5050174;28;20049;-69
2023/09/21 07:11:57;;;;;;;3.35;1.55;;;19.20;96.30;;;;;;5033680;28;20078;-69
2023/09/21 07:14:22;;;;;;;2.60;1.77;;;19.30;96.50;;;;;;5050091;28;20160;-68
2023/09/21 07:16:48;;;;;;;3.65;1.88;;;19.30;96.60;;;;;;5049769;28;20073;-69
2023/09/21 07:19:14;;;;;;;4.78;1.77;;;19.40;97.00;;;;;;5033539;28;20056;-69
2023/09/21 07:21:40;;;;;;;4.22;1.90;;;19.40;97.40;;;;;;5048230;28;20037;-70
2023/09/21 07:24:07;;;;;;;3.83;1.65;;;19.50;97.00;;;;;;5049293;28;20040;-69
2023/09/21 07:26:33;;;;;;;2.55;1.67;;;19.50;97.10;;;;;;5021550;28;20095;-70
2023/09/21 07:29:02;;;;;;;2.75;1.58;;;19.50;97.00;;;;;;5030338;28;20045;-72
2023/09/21 07:31:29;;;;;;;4.60;1.55;;;19.60;97.20;;;;;;5011741;28;20466;-69
2023/09/21 07:33:57;;;;;;;2.25;1.67;;;19.60;97.50;;;;;;5028392;28;20084;-70
2023/09/21 07:36:23;;;;;;;4.35;1.90;;;19.60;97.70;;;;;;5026301;28;20045;-71
2023/09/21 07:38:48;;;;;;;4.20;1.80;;;19.60;97.60;;;;;;5029733;28;20048;-70
2023/09/21 07:41:14;;;;;;;3.60;1.80;;;19.60;97.40;;;;;;5029685;28;20136;-70
2023/09/21 07:43:40;;;;;;;2.20;1.70;;;19.70;96.00;;;;;;5031142;28;20108;-71
2023/09/21 07:46:05;;;;;;;2.60;1.45;;;19.70;96.90;;;;;;5049118;28;20119;-70
2023/09/21 07:48:32;;;;;;;2.30;1.63;;;19.80;96.90;;;;;;5049666;28;20619;-70
2023/09/21 07:51:03;;;;;;;3.10;1.70;;;19.90;96.80;;;;;;5046825;28;20040;-70
2023/09/21 07:53:28;;;;;;;3.30;2.08;;;20.00;96.70;;;;;;5032864;28;20060;-71
2023/09/21 07:55:58;;;;;;;3.35;1.77;;;20.10;96.70;;;;;;5049803;28;20592;-70
2023/09/21 07:58:24;;;;;;;2.88;1.55;;;20.30;96.60;;;;;;5049568;28;20048;-71
2023/09/21 08:00:49;;;;;;;2.60;1.75;;;20.30;96.50;;;;;;5049087;28;20040;-71
2023/09/21 08:03:15;;;;;;;3.83;1.60;;;20.30;96.10;;;;;;5032420;28;20064;-70
2023/09/21 08:05:42;;;;;;;5.00;1.80;;;20.50;96.20;;;;;;5046636;28;20202;-71
2023/09/21 08:08:07;;;;;;;3.03;1.80;;;20.50;96.20;;;;;;5031743;28;20045;-69
2023/09/21 08:10:33;;;;;;;4.15;1.80;;;20.50;95.80;;;;;;5048899;28;20140;-71
2023/09/21 08:13:01;;;;;;;2.08;1.58;;;20.40;94.90;;;;;;5049354;28;20041;-71
2023/09/21 08:15:26;;;;;;;3.28;1.70;;;20.30;95.10;;;;;;5048770;28;20087;-72
2023/09/21 08:17:53;;;;;;;4.10;1.83;;;20.30;95.70;;;;;;5048723;28;20068;-71
2023/09/21 08:20:22;;;;;;;3.60;1.75;;;20.20;95.60;;;;;;5046338;28;20037;-70
2023/09/21 08:22:49;;;;;;;4.93;1.70;;;20.10;95.90;;;;;;5048351;28;20045;-70
2023/09/21 08:25:15;;;;;;;3.55;2.00;;;20.00;96.10;;;;;;5032590;28;20045;-71
2023/09/21 08:27:40;;;;;;;3.35;1.80;;;20.00;94.70;;;;;;5032255;28;20059;-72
2023/09/21 08:30:08;;;;;;;4.45;1.77;;;20.00;95.30;;;;;;5048550;28;20041;-74
2023/09/21 08:32:34;;;;;;;4.05;2.00;;;19.60;97.30;;;;;;5049095;28;20120;-69
2023/09/21 08:35:00;;;;;;;3.42;1.60;;;19.10;99.90;;;;;;5029659;28;20119;-70
2023/09/21 08:37:25;;;;;;;3.88;2.35;;;18.80;99.90;;;;;;5047679;28;20386;-71
2023/09/21 08:39:51;;;;;;;2.92;1.90;;;18.50;99.90;;;;;;5048935;28;20037;-73
2023/09/21 08:42:16;;;;;;;2.85;1.70;;;18.40;99.90;;;;;;5048970;28;20036;-71
2023/09/21 08:44:44;;;;;;;3.47;2.30;;;18.40;99.90;;;;;;5048048;28;20503;-71
2023/09/21 08:47:14;;;;;;;4.00;2.20;;;18.20;99.90;;;;;;5048966;28;20520;-70
2023/09/21 08:49:45;;;;;;;4.03;2.40;;;18.10;99.90;;;;;;5029111;28;20191;-71
2023/09/21 08:52:12;;;;;;;4.03;2.75;;;18.00;99.90;;;;;;5021133;28;20448;-71
2023/09/21 08:54:42;;;;;;;3.33;1.85;;;18.00;99.90;;;;;;5048710;28;20119;-69
2023/09/21 08:57:11;;;;;;;4.25;1.83;;;18.10;99.90;;;;;;5049029;28;20084;-71
2023/09/21 08:59:42;;;;;;;4.03;2.03;;;18.20;99.90;;;;;;5030100;28;20041;-70
2023/09/21 09:02:11;;;;;;;5.68;2.40;;;18.10;99.90;;;;;;5028611;28;20048;-70
2023/09/21 09:04:38;;;;;;;6.10;2.33;;;18.10;99.90;;;;;;5026262;28;20550;-69
2023/09/21 09:07:03;;;;;;;2.25;2.00;;;18.10;99.90;;;;;;5011418;28;20116;-68
2023/09/21 09:09:29;;;;;;;5.57;2.55;;;18.10;99.90;;;;;;5028383;28;20184;-69
2023/09/21 09:11:56;;;;;;;4.50;2.30;;;17.90;99.90;;;;;;5028937;28;20048;-70
2023/09/21 09:14:22;;;;;;;5.03;2.10;;;17.80;99.90;;;;;;5013879;28;20052;-69
2023/09/21 09:16:49;;;;;;;4.72;2.45;;;17.60;99.90;;;;;;5026980;28;20037;-70
2023/09/21 09:19:15;;;;;;;4.72;2.35;;;17.60;99.90;;;;;;5016130;28;20030;-70
2023/09/21 09:21:41;;;;;;;3.63;2.40;;;17.60;99.90;;;;;;5037677;28;20037;-69
2023/09/21 09:24:08;;;;;;;4.65;2.70;;;17.60;99.90;;;;;;5018415;28;20155;-70
2023/09/21 09:26:38;;;;;;;4.15;2.40;;;17.50;99.90;;;;;;5032483;28;20069;-69
2023/09/21 09:29:04;;;;;;;4.38;2.53;;;17.50;99.90;;;;;;5029979;28;20146;-69
2023/09/21 09:31:30;;;;;;;5.28;2.42;;;17.40;99.90;;;;;;5027067;28;20041;-68
2023/09/21 09:33:57;;;;;;;5.60;2.35;;;17.40;99.90;;;;;;5038361;28;20044;-69
2023/09/21 09:36:24;;;;;;;5.07;2.80;;;17.40;99.90;;;;;;5043993;28;20748;-68
2023/09/21 09:38:50;;;;;;;6.10;3.10;;;17.20;99.90;;;;;;5031409;28;20059;-68
2023/09/21 09:41:18;;;;;;;5.30;2.85;;;17.10;99.90;;;;;;5047439;28;20033;-68
2023/09/21 09:43:50;;;;;;;5.32;3.33;;;17.10;99.90;;;;;;5045436;28;20072;-69
2023/09/21 09:46:19;;;;;;;7.43;3.20;;;17.00;99.90;;;;;;5025424;28;20045;-69
2023/09/21 09:48:47;;;;;;;5.50;3.30;;;17.10;99.90;;;;;;5051034;28;20048;-69
2023/09/21 09:51:16;;;;;;;4.95;2.80;;;17.00;99.90;;;;;;5032240;28;20052;-69
2023/09/21 09:53:42;;;;;;;7.07;3.03;;;17.00;99.90;;;;;;5040637;28;20373;-69
2023/09/21 09:56:10;;;;;;;5.53;3.15;;;17.00;99.90;;;;;;5045019;28;20045;-69
2023/09/21 09:58:42;;;;;;;6.05;3.15;;;16.90;99.90;;;;;;5031267;28;20045;-69
2023/09/21 10:01:09;;;;;;;4.93;2.80;;;16.90;99.90;;;;;;5030706;28;20364;-68
2023/09/21 10:03:38;;;;;;;7.32;3.20;;;16.90;99.90;;;;;;5030580;28;20065;-68
2023/09/21 10:06:08;;;;;;;4.95;3.03;;;16.90;99.90;;;;;;5028125;28;20044;-69
2023/09/21 10:08:36;;;;;;;;;;;16.90;99.90;;;;;;5024081;28;20041;-69
2023/09/21 10:11:05;;;;;;;5.38;3.22;;;16.90;99.90;;;;;;5037137;28;19960;-69
2023/09/21 10:13:30;;;;;;;3.67;2.83;;;16.80;99.90;;;;;;5030853;28;20063;-69
2023/09/21 10:16:01;;;;;;;4.38;3.40;;;16.70;99.90;;;;;;5034646;28;20123;-68
2023/09/21 10:18:36;;;;;;;5.88;3.22;;;16.60;99.90;;;;;;5050598;28;20045;-69
2023/09/21 10:21:22;;;;;;;5.03;3.28;;;16.60;99.90;;;;;;5017618;28;20167;-69
2023/09/21 10:24:13;;;;;;;6.35;3.65;;;16.60;99.90;;;;;;5030752;28;20041;-69
2023/09/21 10:26:44;;;;;;;5.03;3.78;;;16.70;99.90;;;;;;5014335;28;20049;-69
2023/09/21 10:29:12;;;;;;;5.80;3.35;;;16.60;99.90;;;;;;5031780;28;20045;-69
2023/09/21 10:31:39;;;;;;;5.63;3.72;;;16.60;99.90;;;;;;5030815;28;20107;-69
2023/09/21 10:34:07;;;;;;;8.68;3.45;;;16.60;99.90;;;;;;5030973;28;20133;-69
2023/09/21 10:36:38;;;;;;;6.32;3.92;;;16.50;99.90;;;;;;5026939;28;20045;-68
2023/09/21 10:39:06;;;;;;;6.07;3.88;;;16.50;99.90;;;;;;5027704;28;20481;-69
2023/09/21 10:41:36;;;;;;;7.78;3.75;;;16.40;99.90;;;;;;5032501;28;20146;-68
2023/09/21 10:44:02;;;;;;;8.75;4.57;;;16.40;99.90;;;;;;5034946;28;20132;-69
2023/09/21 10:46:33;;;;;;;5.50;3.60;;;16.40;99.90;;;;;;5040963;28;20048;-68
2023/09/21 10:49:03;;;;;;;4.03;2.55;;;16.40;99.90;;;;;;5043886;28;20037;-68
2023/09/21 10:51:30;;;;;;;3.90;2.42;;;16.40;99.90;;;;;;5029984;28;20132;-69
2023/09/21 10:53:59;;;;;;;2.42;1.75;;;16.30;99.90;;;;;;5029843;28;20077;-69
2023/09/21 10:56:25;;;;;;;3.15;1.70;;;16.10;99.90;;;;;;5030298;28;20041;-68
2023/09/21 10:58:50;;;;;;;2.88;1.67;;;16.20;99.90;;;;;;5030447;28;20060;-67
2023/09/21 11:01:18;;;;;;;2.42;1.25;;;16.20;99.90;;;;;;5029531;28;20034;-67
2023/09/21 11:03:47;;;;;;;1.48;1.00;;;16.20;99.90;;;;;;5013906;28;20053;-68
2023/09/21 11:06:16;;;;;;;1.85;1.00;;;16.20;99.90;;;;;;5027096;28;20041;-69
2023/09/21 11:08:42;;;;;;;1.63;0.70;;;16.20;99.90;;;;;;5041230;28;20495;-69
2023/09/21 11:11:08;;;;;;;1.08;0.77;;;16.20;99.90;;;;;;5033694;28;20047;-69
2023/09/21 11:13:33;;;;;;;1.20;0.80;;;16.20;99.90;;;;;;5014051;28;20421;-70
2023/09/21 11:15:59;;;;;;;3.45;0.93;;;16.20;99.90;;;;;;5029666;28;20107;-69
2023/09/21 11:18:28;;;;;;;3.65;0.70;;;16.10;99.90;;;;;;5038195;28;20051;-69
2023/09/21 11:20:55;;;;;;;1.23;0.65;;;16.00;99.90;;;;;;5035547;28;20052;-69
2023/09/21 11:23:21;;;;;;;1.30;0.70;;;15.80;99.90;;;;;;5029072;28;20129;-69
2023/09/21 11:25:49;;;;;;;1.75;0.43;;;15.80;99.90;;;;;;5033167;28;20562;-69
2023/09/21 11:28:16;;;;;;;2.03;0.60;;;15.70;99.90;;;;;;5042876;28;20042;-69
2023/09/21 11:30:42;;;;;;;0.88;0.60;;;15.60;99.90;;;;;;5039161;28;20524;-69
2023/09/21 11:33:08;;;;;;;1.02;0.68;;;15.70;99.90;;;;;;5035392;28;20045;-70
2023/09/21 11:35:34;;;;;;;2.45;0.50;;;15.60;99.90;;;;;;5027018;28;20041;-69
2023/09/21 11:38:00;;;;;;;3.05;0.60;;;15.60;99.90;;;;;;5034578;28;20110;-69
2023/09/21 11:40:26;;;;;;;2.05;0.90;;;15.60;99.90;;;;;;5049148;28;20362;-69
2023/09/21 11:43:01;;;;;;;1.30;0.57;;;15.60;99.90;;;;;;5046853;28;20045;-69
2023/09/21 11:45:27;;;;;;;1.42;0.70;;;15.60;99.90;;;;;;5031917;28;20170;-69
2023/09/21 11:47:55;;;;;;;1.38;0.80;;;15.60;99.90;;;;;;5045273;28;20376;-69
2023/09/21 11:50:25;;;;;;;1.63;0.77;;;15.70;99.90;;;;;;5034037;28;20505;-70
2023/09/21 11:52:54;;;;;;;2.03;0.75;;;15.80;99.90;;;;;;5047875;28;20084;-69
2023/09/21 11:55:23;;;;;;;2.80;0.80;;;15.70;99.90;;;;;;5028972;28;20076;-69
2023/09/21 11:57:50;;;;;;;2.35;0.70;;;15.90;99.90;;;;;;5045896;28;20095;-69
2023/09/21 12:00:26;;;;;;;1.80;0.73;;;16.10;99.90;;;;;;5028767;28;20438;-69
2023/09/21 12:02:52;;;;;;;1.70;0.80;;;16.30;99.90;;;;;;5029218;28;20494;-69
2023/09/21 12:05:18;;;;;;;1.67;1.10;;;16.60;99.90;;;;;;5042632;28;20060;-69
2023/09/21 12:07:44;;;;;;;1.38;0.90;;;16.70;99.90;;;;;;5025941;28;20456;-68
2023/09/21 12:10:10;;;;;;;2.17;1.08;;;16.90;99.90;;;;;;5048225;28;20116;-69
2023/09/21 12:12:35;;;;;;;1.30;0.98;;;16.90;99.90;;;;;;5022707;28;20053;-69
2023/09/21 12:15:01;;;;;;;2.08;0.80;;;16.90;99.90;;;;;;5025118;28;20076;-69
2023/09/21 12:17:30;;;;;;;1.20;0.70;;;16.90;99.90;;;;;;5048125;28;20044;-69
2023/09/21 12:19:56;;;;;;;1.10;0.80;;;16.80;99.90;;;;;;5041691;28;20052;-69
2023/09/21 12:22:21;;;;;;;2.22;0.85;;;16.70;99.90;;;;;;5035752;28;20037;-69
2023/09/21 12:24:47;;;;;;;1.95;0.82;;;16.70;99.90;;;;;;5048727;28;20107;-69
2023/09/21 12:27:13;;;;;;;2.72;0.70;;;16.60;99.90;;;;;;5033812;28;20708;-69
2023/09/21 12:29:39;;;;;;;1.00;0.57;;;16.50;99.90;;;;;;5027759;28;20068;-69
2023/09/21 12:32:04;;;;;;;3.03;0.90;;;16.50;99.90;;;;;;5028282;28;20037;-69
2023/09/21 12:34:34;;;;;;;2.55;0.80;;;16.30;99.90;;;;;;5019092;28;20636;-69
2023/09/21 12:37:00;;;;;;;1.33;0.65;;;16.30;99.90;;;;;;5047334;28;20074;-69
2023/09/21 12:39:26;;;;;;;2.40;0.85;;;16.30;99.90;;;;;;5048030;28;20051;-69
2023/09/21 12:41:52;;;;;;;0.90;0.45;;;16.30;99.90;;;;;;5044611;28;20037;-69
2023/09/21 12:44:18;;;;;;;0.60;0.50;;;16.30;99.90;;;;;;5028075;28;20120;-69
2023/09/21 12:46:44;;;;;;;1.50;0.70;;;16.30;99.90;;;;;;5038706;28;20045;-70